sensor_id;sensor_type;location;lat;lon;timestamp;pressure;altitude;pressure_sealevel;temperature;humidity
64192;BME280;50497;50.720;-2.084;2022-12-07T00:01:37;102599.41;;;3.07;100.00
64192;BME280;50497;50.720;-2.084;2022-12-07T00:04:08;102619.75;;;3.13;100.00
64192;BME280;50497;50.720;-2.084;2022-12-07T00:06:45;102615.28;;;3.07;100.00
64192;BME280;50497;50.720;-2.084;2022-12-07T00:09:14;102615.91;;;2.91;100.00
64192;BME280;50497;50.720;-2.084;2022-12-07T00:11:40;102588.34;;;2.75;100.00
64192;BME280;50497;50.720;-2.084;2022-12-07T00:14:08;102606.81;;;2.72;100.00
64192;BME280;50497;50.720;-2.084;2022-12-07T00:16:35;102587.13;;;2.51;100.00
64192;BME280;50497;50.720;-2.084;2022-12-07T00:19:04;102609.03;;;2.44;100.00
64192;BME280;50497;50.720;-2.084;2022-12-07T00:21:32;102596.81;;;2.51;100.00
64192;BME280;50497;50.720;-2.084;2022-12-07T00:23:58;102589.50;;;2.34;100.00
64192;BME280;50497;50.720;-2.084;2022-12-07T00:26:35;102568.09;;;2.19;100.00
64192;BME280;50497;50.720;-2.084;2022-12-07T00:29:15;102580.53;;;2.25;100.00
64192;BME280;50497;50.720;-2.084;2022-12-07T00:31:41;102565.38;;;2.13;100.00
64192;BME280;50497;50.720;-2.084;2022-12-07T00:34:12;102574.97;;;2.08;100.00
64192;BME280;50497;50.720;-2.084;2022-12-07T00:36:38;102578.47;;;2.07;100.00
64192;BME280;50497;50.720;-2.084;2022-12-07T00:39:03;102579.16;;;1.96;100.00
64192;BME280;50497;50.720;-2.084;2022-12-07T00:41:31;102571.06;;;1.87;100.00
64192;BME280;50497;50.720;-2.084;2022-12-07T00:44:00;102569.16;;;1.78;100.00
64192;BME280;50497;50.720;-2.084;2022-12-07T00:46:26;102566.41;;;1.72;100.00
64192;BME280;50497;50.720;-2.084;2022-12-07T00:48:52;102577.84;;;1.71;100.00
64192;BME280;50497;50.720;-2.084;2022-12-07T00:51:20;102555.47;;;1.52;100.00
64192;BME280;50497;50.720;-2.084;2022-12-07T00:53:46;102568.56;;;1.47;100.00
64192;BME280;50497;50.720;-2.084;2022-12-07T00:56:26;102548.03;;;1.29;100.00
64192;BME280;50497;50.720;-2.084;2022-12-07T00:59:12;102568.31;;;1.34;100.00
64192;BME280;50497;50.720;-2.084;2022-12-07T01:01:38;102561.38;;;1.39;100.00
64192;BME280;50497;50.720;-2.084;2022-12-07T01:04:04;102563.03;;;1.34;100.00
64192;BME280;50497;50.720;-2.084;2022-12-07T01:06:30;102540.81;;;1.22;100.00
64192;BME280;50497;50.720;-2.084;2022-12-07T01:08:56;102559.47;;;1.32;100.00
64192;BME280;50497;50.720;-2.084;2022-12-07T01:11:24;102562.97;;;1.31;100.00
64192;BME280;50497;50.720;-2.084;2022-12-07T01:13:56;102562.97;;;1.31;100.00
64192;BME280;50497;50.720;-2.084;2022-12-07T01:16:24;102562.91;;;1.27;100.00
64192;BME280;50497;50.720;-2.084;2022-12-07T01:18:55;102560.13;;;1.20;100.00
64192;BME280;50497;50.720;-2.084;2022-12-07T01:21:30;102560.81;;;1.13;100.00
64192;BME280;50497;50.720;-2.084;2022-12-07T01:23:59;102568.72;;;1.11;100.00
64192;BME280;50497;50.720;-2.084;2022-12-07T01:26:26;102566.03;;;1.09;100.00
64192;BME280;50497;50.720;-2.084;2022-12-07T01:28:52;102571.34;;;1.11;100.00
64192;BME280;50497;50.720;-2.084;2022-12-07T01:31:22;102571.31;;;1.08;100.00
64192;BME280;50497;50.720;-2.084;2022-12-07T01:33:50;102542.00;;;0.94;100.00
64192;BME280;50497;50.720;-2.084;2022-12-07T01:36:26;102558.81;;;1.01;100.00
64192;BME280;50497;50.720;-2.084;2022-12-07T01:38:56;102565.00;;;1.03;100.00
64192;BME280;50497;50.720;-2.084;2022-12-07T01:41:25;102565.88;;;1.02;100.00
64192;BME280;50497;50.720;-2.084;2022-12-07T01:47:02;102565.88;;;1.02;100.00
64192;BME280;50497;50.720;-2.084;2022-12-07T01:49:33;102574.56;;;0.98;100.00
64192;BME280;50497;50.720;-2.084;2022-12-07T01:52:13;102553.16;;;0.82;100.00
64192;BME280;50497;50.720;-2.084;2022-12-07T01:54:42;102574.50;;;0.95;100.00
64192;BME280;50497;50.720;-2.084;2022-12-07T01:57:10;102573.47;;;0.88;100.00
64192;BME280;50497;50.720;-2.084;2022-12-07T01:59:38;102581.53;;;0.94;100.00
64192;BME280;50497;50.720;-2.084;2022-12-07T02:02:16;102577.13;;;0.93;100.00
64192;BME280;50497;50.720;-2.084;2022-12-07T02:04:46;102569.13;;;0.88;100.00
64192;BME280;50497;50.720;-2.084;2022-12-07T02:07:12;102577.72;;;0.81;100.00
64192;BME280;50497;50.720;-2.084;2022-12-07T02:09:37;102576.88;;;0.82;100.00
64192;BME280;50497;50.720;-2.084;2022-12-07T02:12:04;102581.16;;;0.77;100.00
64192;BME280;50497;50.720;-2.084;2022-12-07T02:14:33;102583.53;;;0.65;100.00
64192;BME280;50497;50.720;-2.084;2022-12-07T02:28:09;102587.66;;;0.53;100.00
64192;BME280;50497;50.720;-2.084;2022-12-07T02:30:42;102579.50;;;0.44;100.00
64192;BME280;50497;50.720;-2.084;2022-12-07T02:33:21;102583.09;;;0.48;100.00
64192;BME280;50497;50.720;-2.084;2022-12-07T02:36:08;102584.84;;;0.47;100.00
64192;BME280;50497;50.720;-2.084;2022-12-07T02:41:31;102598.94;;;0.49;100.00
64192;BME280;50497;50.720;-2.084;2022-12-07T02:44:05;102602.66;;;0.58;100.00
64192;BME280;50497;50.720;-2.084;2022-12-07T02:46:36;102596.50;;;0.57;100.00
64192;BME280;50497;50.720;-2.084;2022-12-07T02:49:02;102604.28;;;0.52;100.00
64192;BME280;50497;50.720;-2.084;2022-12-07T02:51:33;102582.06;;;0.41;100.00
64192;BME280;50497;50.720;-2.084;2022-12-07T02:53:59;102591.13;;;0.52;100.00
64192;BME280;50497;50.720;-2.084;2022-12-07T02:59:35;102588.44;;;0.51;100.00
64192;BME280;50497;50.720;-2.084;2022-12-07T03:10:17;102583.63;;;0.33;100.00
64192;BME280;50497;50.720;-2.084;2022-12-07T03:12:56;102589.91;;;0.40;100.00
64192;BME280;50497;50.720;-2.084;2022-12-07T03:15:29;102586.22;;;0.31;100.00
64192;BME280;50497;50.720;-2.084;2022-12-07T03:17:57;102587.00;;;0.27;100.00
64192;BME280;50497;50.720;-2.084;2022-12-07T03:20:25;102580.97;;;0.33;100.00
64192;BME280;50497;50.720;-2.084;2022-12-07T03:22:57;102558.28;;;0.38;100.00
64192;BME280;50497;50.720;-2.084;2022-12-07T03:25:25;102577.69;;;0.80;100.00
64192;BME280;50497;50.720;-2.084;2022-12-07T03:30:22;102583.78;;;0.77;100.00
64192;BME280;50497;50.720;-2.084;2022-12-07T03:33:17;102586.16;;;0.66;100.00
64192;BME280;50497;50.720;-2.084;2022-12-07T03:35:52;102573.72;;;0.59;100.00
64192;BME280;50497;50.720;-2.084;2022-12-07T03:38:45;102578.03;;;0.55;100.00
64192;BME280;50497;50.720;-2.084;2022-12-07T03:41:20;102571.13;;;0.61;100.00
64192;BME280;50497;50.720;-2.084;2022-12-07T03:43:48;102580.69;;;0.57;100.00
64192;BME280;50497;50.720;-2.084;2022-12-07T03:54:34;102599.44;;;1.09;100.00
64192;BME280;50497;50.720;-2.084;2022-12-07T03:57:02;102578.25;;;1.06;100.00
64192;BME280;50497;50.720;-2.084;2022-12-07T03:59:30;102595.41;;;1.26;100.00
64192;BME280;50497;50.720;-2.084;2022-12-07T04:02:02;102594.75;;;1.37;100.00
64192;BME280;50497;50.720;-2.084;2022-12-07T04:04:28;102594.88;;;1.43;100.00
64192;BME280;50497;50.720;-2.084;2022-12-07T04:06:54;102575.38;;;1.35;100.00
64192;BME280;50497;50.720;-2.084;2022-12-07T04:09:24;102595.03;;;1.52;100.00
64192;BME280;50497;50.720;-2.084;2022-12-07T04:11:49;102598.59;;;1.54;100.00
64192;BME280;50497;50.720;-2.084;2022-12-07T04:14:15;102594.28;;;1.58;100.00
64192;BME280;50497;50.720;-2.084;2022-12-07T04:16:56;102598.78;;;1.63;100.00
64192;BME280;50497;50.720;-2.084;2022-12-07T04:19:24;102589.03;;;1.61;100.00
64192;BME280;50497;50.720;-2.084;2022-12-07T04:21:51;102570.47;;;1.55;100.00
64192;BME280;50497;50.720;-2.084;2022-12-07T04:24:20;102582.09;;;1.66;100.00
64192;BME280;50497;50.720;-2.084;2022-12-07T04:26:46;102568.91;;;1.64;100.00
64192;BME280;50497;50.720;-2.084;2022-12-07T04:29:11;102564.59;;;1.70;100.00
64192;BME280;50497;50.720;-2.084;2022-12-07T04:31:38;102588.63;;;1.85;100.00
64192;BME280;50497;50.720;-2.084;2022-12-07T04:34:04;102569.97;;;1.76;100.00
64192;BME280;50497;50.720;-2.084;2022-12-07T04:36:30;102584.34;;;1.92;100.00
64192;BME280;50497;50.720;-2.084;2022-12-07T04:39:00;102562.38;;;1.91;100.00
64192;BME280;50497;50.720;-2.084;2022-12-07T04:41:26;102585.41;;;2.01;100.00
64192;BME280;50497;50.720;-2.084;2022-12-07T04:43:59;102584.53;;;2.01;100.00
64192;BME280;50497;50.720;-2.084;2022-12-07T04:46:26;102574.84;;;2.01;100.00
64192;BME280;50497;50.720;-2.084;2022-12-07T04:48:52;102574.97;;;2.08;100.00
64192;BME280;50497;50.720;-2.084;2022-12-07T04:51:21;102568.81;;;2.09;100.00
64192;BME280;50497;50.720;-2.084;2022-12-07T04:53:47;102571.50;;;2.12;100.00
64192;BME280;50497;50.720;-2.084;2022-12-07T04:56:13;102566.16;;;2.09;100.00
64192;BME280;50497;50.720;-2.084;2022-12-07T04:58:39;102580.34;;;2.14;100.00
64192;BME280;50497;50.720;-2.084;2022-12-07T05:01:09;102565.34;;;2.11;100.00
64192;BME280;50497;50.720;-2.084;2022-12-07T05:03:35;102565.34;;;2.11;100.00
64192;BME280;50497;50.720;-2.084;2022-12-07T05:06:01;102563.72;;;2.19;100.00
64192;BME280;50497;50.720;-2.084;2022-12-07T05:08:26;102554.91;;;2.20;100.00
64192;BME280;50497;50.720;-2.084;2022-12-07T05:10:56;102550.56;;;2.22;100.00
64192;BME280;50497;50.720;-2.084;2022-12-07T05:13:21;102551.38;;;2.18;100.00
64192;BME280;50497;50.720;-2.084;2022-12-07T05:15:48;102543.53;;;2.23;100.00
64192;BME280;50497;50.720;-2.084;2022-12-07T05:18:13;102555.00;;;2.25;100.00
64192;BME280;50497;50.720;-2.084;2022-12-07T05:20:39;102552.41;;;2.28;100.00
64192;BME280;50497;50.720;-2.084;2022-12-07T05:23:05;102536.47;;;2.24;100.00
64192;BME280;50497;50.720;-2.084;2022-12-07T05:25:31;102546.28;;;2.29;100.00
64192;BME280;50497;50.720;-2.084;2022-12-07T05:27:57;102543.63;;;2.29;100.00
64192;BME280;50497;50.720;-2.084;2022-12-07T05:30:23;102543.59;;;2.26;100.00
64192;BME280;50497;50.720;-2.084;2022-12-07T05:32:52;102544.63;;;2.39;100.00
64192;BME280;50497;50.720;-2.084;2022-12-07T05:35:18;102541.97;;;2.36;100.00
64192;BME280;50497;50.720;-2.084;2022-12-07T05:37:48;102543.72;;;2.37;100.00
64192;BME280;50497;50.720;-2.084;2022-12-07T05:40:18;102549.03;;;2.38;100.00
64192;BME280;50497;50.720;-2.084;2022-12-07T05:42:44;102550.91;;;2.46;100.00
64192;BME280;50497;50.720;-2.084;2022-12-07T05:45:10;102555.22;;;2.40;100.00
64192;BME280;50497;50.720;-2.084;2022-12-07T05:47:36;102547.31;;;2.40;100.00
64192;BME280;50497;50.720;-2.084;2022-12-07T05:50:03;102550.91;;;2.46;100.00
64192;BME280;50497;50.720;-2.084;2022-12-07T05:52:31;102545.63;;;2.46;100.00
64192;BME280;50497;50.720;-2.084;2022-12-07T05:54:57;102528.78;;;2.37;100.00
64192;BME280;50497;50.720;-2.084;2022-12-07T05:57:23;102554.50;;;2.48;100.00
64192;BME280;50497;50.720;-2.084;2022-12-07T05:59:50;102544.66;;;2.40;100.00
64192;BME280;50497;50.720;-2.084;2022-12-07T06:02:19;102544.78;;;2.47;100.00
64192;BME280;50497;50.720;-2.084;2022-12-07T06:04:46;102544.88;;;2.53;100.00
64192;BME280;50497;50.720;-2.084;2022-12-07T06:07:14;102524.41;;;2.39;100.00
64192;BME280;50497;50.720;-2.084;2022-12-07T06:09:44;102535.09;;;2.49;100.00
64192;BME280;50497;50.720;-2.084;2022-12-07T06:12:16;102531.63;;;2.51;100.00
64192;BME280;50497;50.720;-2.084;2022-12-07T06:15:00;102514.63;;;2.34;100.00
64192;BME280;50497;50.720;-2.084;2022-12-07T06:17:26;102527.13;;;2.46;100.00
64192;BME280;50497;50.720;-2.084;2022-12-07T06:19:51;102511.25;;;2.43;100.00
64192;BME280;50497;50.720;-2.084;2022-12-07T06:22:17;102521.84;;;2.44;100.00
64192;BME280;50497;50.720;-2.084;2022-12-07T06:24:43;102522.81;;;2.49;100.00
64192;BME280;50497;50.720;-2.084;2022-12-07T06:27:12;102525.53;;;2.57;100.00
64192;BME280;50497;50.720;-2.084;2022-12-07T06:29:37;102523.66;;;2.48;100.00
64192;BME280;50497;50.720;-2.084;2022-12-07T06:32:03;102517.50;;;2.48;100.00
64192;BME280;50497;50.720;-2.084;2022-12-07T06:34:29;102532.47;;;2.49;100.00
64192;BME280;50497;50.720;-2.084;2022-12-07T06:36:55;102520.97;;;2.45;100.00
64192;BME280;50497;50.720;-2.084;2022-12-07T06:39:23;102536.94;;;2.53;100.00
64192;BME280;50497;50.720;-2.084;2022-12-07T06:41:52;102535.19;;;2.55;100.00
64192;BME280;50497;50.720;-2.084;2022-12-07T06:44:19;102535.25;;;2.58;100.00
64192;BME280;50497;50.720;-2.084;2022-12-07T06:46:44;102534.31;;;2.53;100.00
64192;BME280;50497;50.720;-2.084;2022-12-07T06:49:10;102540.38;;;2.49;100.00
64192;BME280;50497;50.720;-2.084;2022-12-07T06:51:36;102512.13;;;2.42;100.00
64192;BME280;50497;50.720;-2.084;2022-12-07T06:54:03;102538.69;;;2.54;100.00
64192;BME280;50497;50.720;-2.084;2022-12-07T06:56:31;102534.31;;;2.54;100.00
64192;BME280;50497;50.720;-2.084;2022-12-07T06:58:57;102515.75;;;2.50;100.00
64192;BME280;50497;50.720;-2.084;2022-12-07T07:01:25;102539.63;;;2.54;100.00
64192;BME280;50497;50.720;-2.084;2022-12-07T07:03:55;102521.84;;;2.44;100.00
64192;BME280;50497;50.720;-2.084;2022-12-07T07:06:20;102532.66;;;2.61;100.00
64192;BME280;50497;50.720;-2.084;2022-12-07T07:08:45;102516.72;;;2.56;100.00
64192;BME280;50497;50.720;-2.084;2022-12-07T07:11:12;102535.34;;;2.64;100.00
64192;BME280;50497;50.720;-2.084;2022-12-07T07:13:38;102538.94;;;2.69;100.00
64192;BME280;50497;50.720;-2.084;2022-12-07T07:16:03;102535.41;;;2.70;100.00
64192;BME280;50497;50.720;-2.084;2022-12-07T07:18:31;102531.94;;;2.73;100.00
64192;BME280;50497;50.720;-2.084;2022-12-07T07:20:57;102535.50;;;2.75;100.00
64192;BME280;50497;50.720;-2.084;2022-12-07T07:23:27;102539.03;;;2.77;100.00
64192;BME280;50497;50.720;-2.084;2022-12-07T07:25:52;102521.19;;;2.62;100.00
64192;BME280;50497;50.720;-2.084;2022-12-07T07:28:18;102505.34;;;2.62;100.00
64192;BME280;50497;50.720;-2.084;2022-12-07T07:30:44;102534.63;;;2.76;100.00
64192;BME280;50497;50.720;-2.084;2022-12-07T07:33:13;102526.59;;;2.70;100.00
64192;BME280;50497;50.720;-2.084;2022-12-07T07:35:39;102540.75;;;2.73;100.00
64192;BME280;50497;50.720;-2.084;2022-12-07T07:38:05;102539.69;;;2.62;100.00
64192;BME280;50497;50.720;-2.084;2022-12-07T07:40:31;102535.16;;;2.52;100.00
64192;BME280;50497;50.720;-2.084;2022-12-07T07:42:57;102541.31;;;2.49;100.00
64192;BME280;50497;50.720;-2.084;2022-12-07T07:45:25;102521.81;;;2.41;100.00
64192;BME280;50497;50.720;-2.084;2022-12-07T07:47:51;102535.16;;;2.52;100.00
64192;BME280;50497;50.720;-2.084;2022-12-07T07:50:17;102518.50;;;2.56;100.00
64192;BME280;50497;50.720;-2.084;2022-12-07T07:52:44;102519.34;;;2.55;100.00
64192;BME280;50497;50.720;-2.084;2022-12-07T07:55:12;102510.56;;;2.56;100.00
64192;BME280;50497;50.720;-2.084;2022-12-07T07:57:39;102534.22;;;2.48;100.00
64192;BME280;50497;50.720;-2.084;2022-12-07T08:00:06;102540.53;;;2.58;100.00
64192;BME280;50497;50.720;-2.084;2022-12-07T08:02:32;102540.44;;;2.52;100.00
64192;BME280;50497;50.720;-2.084;2022-12-07T08:04:57;102550.25;;;2.59;100.00
64192;BME280;50497;50.720;-2.084;2022-12-07T08:07:23;102553.66;;;2.52;100.00
64192;BME280;50497;50.720;-2.084;2022-12-07T08:09:48;102551.09;;;2.58;100.00
64192;BME280;50497;50.720;-2.084;2022-12-07T08:12:14;102550.31;;;2.65;100.00
64192;BME280;50497;50.720;-2.084;2022-12-07T08:14:39;102551.31;;;2.73;100.00
64192;BME280;50497;50.720;-2.084;2022-12-07T08:17:05;102539.69;;;2.62;100.00
64192;BME280;50497;50.720;-2.084;2022-12-07T08:19:30;102546.81;;;2.66;100.00
64192;BME280;50497;50.720;-2.084;2022-12-07T08:21:56;102553.94;;;2.72;100.00
64192;BME280;50497;50.720;-2.084;2022-12-07T08:24:22;102539.00;;;2.72;100.00
64192;BME280;50497;50.720;-2.084;2022-12-07T08:26:51;102533.63;;;2.66;100.00
64192;BME280;50497;50.720;-2.084;2022-12-07T08:29:16;102546.09;;;2.78;100.00
64192;BME280;50497;50.720;-2.084;2022-12-07T08:31:42;102553.03;;;2.70;100.00
64192;BME280;50497;50.720;-2.084;2022-12-07T08:34:10;102537.34;;;2.81;100.00
64192;BME280;50497;50.720;-2.084;2022-12-07T08:36:36;102535.56;;;2.80;100.00
64192;BME280;50497;50.720;-2.084;2022-12-07T08:39:02;102550.78;;;2.98;100.00
64192;BME280;50497;50.720;-2.084;2022-12-07T08:41:27;102544.69;;;3.05;100.00
64192;BME280;50497;50.720;-2.084;2022-12-07T08:43:53;102526.00;;;2.89;100.00
64192;BME280;50497;50.720;-2.084;2022-12-07T08:49:27;102519.69;;;2.80;100.00
64192;BME280;50497;50.720;-2.084;2022-12-07T08:51:56;102554.31;;;3.00;100.00
64192;BME280;50497;50.720;-2.084;2022-12-07T08:54:22;102531.28;;;2.89;100.00
64192;BME280;50497;50.720;-2.084;2022-12-07T08:56:48;102534.06;;;3.02;100.00
64192;BME280;50497;50.720;-2.084;2022-12-07T08:59:17;102541.28;;;3.15;100.00
64192;BME280;50497;50.720;-2.084;2022-12-07T09:01:43;102545.78;;;3.21;100.00
64192;BME280;50497;50.720;-2.084;2022-12-07T09:04:09;102525.25;;;3.01;100.00
64192;BME280;50497;50.720;-2.084;2022-12-07T09:06:34;102543.19;;;3.27;100.00
64192;BME280;50497;50.720;-2.084;2022-12-07T09:09:01;102542.44;;;3.36;100.00
64192;BME280;50497;50.720;-2.084;2022-12-07T09:11:27;102543.19;;;3.25;100.00
64192;BME280;50497;50.720;-2.084;2022-12-07T09:13:52;102540.69;;;3.38;100.00
64192;BME280;50497;50.720;-2.084;2022-12-07T09:16:18;102545.03;;;3.31;100.00
64192;BME280;50497;50.720;-2.084;2022-12-07T09:18:43;102544.19;;;3.37;100.00
64192;BME280;50497;50.720;-2.084;2022-12-07T09:21:09;102516.75;;;3.27;100.00
64192;BME280;50497;50.720;-2.084;2022-12-07T09:23:35;102523.72;;;3.17;100.00
64192;BME280;50497;50.720;-2.084;2022-12-07T09:26:01;102541.34;;;3.18;100.00
64192;BME280;50497;50.720;-2.084;2022-12-07T09:28:28;102538.72;;;3.20;100.00
64192;BME280;50497;50.720;-2.084;2022-12-07T09:30:53;102542.94;;;3.05;100.00
64192;BME280;50497;50.720;-2.084;2022-12-07T09:33:19;102536.75;;;3.05;100.00
64192;BME280;50497;50.720;-2.084;2022-12-07T09:35:45;102535.88;;;3.03;100.00
64192;BME280;50497;50.720;-2.084;2022-12-07T09:38:11;102510.09;;;2.86;100.00
64192;BME280;50497;50.720;-2.084;2022-12-07T09:40:37;102529.41;;;2.79;100.00
64192;BME280;50497;50.720;-2.084;2022-12-07T09:43:19;102532.97;;;2.84;100.00
64192;BME280;50497;50.720;-2.084;2022-12-07T09:45:47;102524.22;;;2.88;100.00
64192;BME280;50497;50.720;-2.084;2022-12-07T09:48:33;102528.66;;;2.91;100.00
64192;BME280;50497;50.720;-2.084;2022-12-07T09:51:02;102511.84;;;2.86;100.00
64192;BME280;50497;50.720;-2.084;2022-12-07T09:53:37;102536.69;;;2.99;100.00
64192;BME280;50497;50.720;-2.084;2022-12-07T09:56:03;102530.41;;;2.92;100.00
64192;BME280;50497;50.720;-2.084;2022-12-07T09:58:30;102513.53;;;2.79;100.00
64192;BME280;50497;50.720;-2.084;2022-12-07T10:01:00;102536.63;;;2.92;100.00
64192;BME280;50497;50.720;-2.084;2022-12-07T10:03:27;102510.88;;;2.77;100.00
64192;BME280;50497;50.720;-2.084;2022-12-07T10:05:54;102530.47;;;2.95;100.00
64192;BME280;50497;50.720;-2.084;2022-12-07T10:08:20;102531.44;;;3.03;100.00
64192;BME280;50497;50.720;-2.084;2022-12-07T10:10:51;102531.38;;;2.97;100.00
64192;BME280;50497;50.720;-2.084;2022-12-07T10:13:42;102522.69;;;3.06;100.00
64192;BME280;50497;50.720;-2.084;2022-12-07T10:19:21;102533.25;;;3.06;100.00
64192;BME280;50497;50.720;-2.084;2022-12-07T10:22:09;102528.84;;;3.05;100.00
64192;BME280;50497;50.720;-2.084;2022-12-07T10:24:38;102523.13;;;3.44;100.00
64192;BME280;50497;50.720;-2.084;2022-12-07T10:27:17;102518.97;;;3.71;100.00
64192;BME280;50497;50.720;-2.084;2022-12-07T10:29:49;102517.56;;;4.10;100.00
64192;BME280;50497;50.720;-2.084;2022-12-07T10:34:40;102521.31;;;4.41;100.00
64192;BME280;50497;50.720;-2.084;2022-12-07T10:42:31;102498.53;;;4.74;100.00
64192;BME280;50497;50.720;-2.084;2022-12-07T10:45:17;102495.19;;;5.20;100.00
64192;BME280;50497;50.720;-2.084;2022-12-07T10:48:05;102491.75;;;5.60;100.00
64192;BME280;50497;50.720;-2.084;2022-12-07T11:10:24;102455.47;;;6.00;100.00
64192;BME280;50497;50.720;-2.084;2022-12-07T11:13:04;102459.88;;;5.92;100.00
64192;BME280;50497;50.720;-2.084;2022-12-07T11:28:58;102410.09;;;6.71;100.00
64192;BME280;50497;50.720;-2.084;2022-12-07T11:31:51;102410.63;;;7.30;100.00
64192;BME280;50497;50.720;-2.084;2022-12-07T11:34:31;102391.53;;;7.90;100.00
64192;BME280;50497;50.720;-2.084;2022-12-07T11:37:02;102362.66;;;7.39;100.00
64192;BME280;50497;50.720;-2.084;2022-12-07T11:39:41;102379.50;;;7.40;100.00
64192;BME280;50497;50.720;-2.084;2022-12-07T11:42:14;102363.81;;;7.00;100.00
64192;BME280;50497;50.720;-2.084;2022-12-07T11:45:00;102380.00;;;6.60;100.00
64192;BME280;50497;50.720;-2.084;2022-12-07T11:47:48;102365.09;;;6.22;100.00
64192;BME280;50497;50.720;-2.084;2022-12-07T11:50:43;102394.38;;;6.13;100.00
64192;BME280;50497;50.720;-2.084;2022-12-07T11:53:18;102382.88;;;5.43;100.00
64192;BME280;50497;50.720;-2.084;2022-12-07T12:03:49;102384.63;;;5.27;100.00
64192;BME280;50497;50.720;-2.084;2022-12-07T12:06:19;102371.34;;;5.04;100.00
64192;BME280;50497;50.720;-2.084;2022-12-07T12:09:06;102377.56;;;5.15;100.00
64192;BME280;50497;50.720;-2.084;2022-12-07T12:15:23;102381.09;;;5.23;100.00
64192;BME280;50497;50.720;-2.084;2022-12-07T12:20:26;102365.16;;;5.12;100.00
64192;BME280;50497;50.720;-2.084;2022-12-07T12:23:33;102370.44;;;5.11;100.00
64192;BME280;50497;50.720;-2.084;2022-12-07T12:26:03;102358.97;;;5.09;100.00
64192;BME280;50497;50.720;-2.084;2022-12-07T12:28:39;102354.53;;;5.02;100.00
64192;BME280;50497;50.720;-2.084;2022-12-07T12:31:11;102358.94;;;4.99;100.00
64192;BME280;50497;50.720;-2.084;2022-12-07T12:33:48;102357.19;;;5.06;100.00
64192;BME280;50497;50.720;-2.084;2022-12-07T12:39:18;102355.44;;;5.21;100.00
64192;BME280;50497;50.720;-2.084;2022-12-07T12:57:01;102335.09;;;5.46;100.00
64192;BME280;50497;50.720;-2.084;2022-12-07T13:05:01;102320.03;;;5.63;100.00
64192;BME280;50497;50.720;-2.084;2022-12-07T13:15:45;102292.53;;;5.84;100.00
64192;BME280;50497;50.720;-2.084;2022-12-07T13:18:36;102277.50;;;5.79;100.00
64192;BME280;50497;50.720;-2.084;2022-12-07T13:26:23;102280.06;;;6.14;100.00
64192;BME280;50497;50.720;-2.084;2022-12-07T13:31:56;102270.41;;;5.98;100.00
64192;BME280;50497;50.720;-2.084;2022-12-07T13:37:02;102253.59;;;5.88;100.00
64192;BME280;50497;50.720;-2.084;2022-12-07T13:39:33;102249.19;;;5.74;100.00
64192;BME280;50497;50.720;-2.084;2022-12-07T13:42:11;102242.16;;;5.50;100.00
64192;BME280;50497;50.720;-2.084;2022-12-07T13:44:41;102245.69;;;5.63;100.00
64192;BME280;50497;50.720;-2.084;2022-12-07T13:47:17;102219.16;;;5.59;100.00
64192;BME280;50497;50.720;-2.084;2022-12-07T13:49:52;102238.59;;;5.70;100.00
64192;BME280;50497;50.720;-2.084;2022-12-07T13:52:22;102240.31;;;5.74;100.00
64192;BME280;50497;50.720;-2.084;2022-12-07T13:57:22;102226.19;;;5.69;100.00
64192;BME280;50497;50.720;-2.084;2022-12-07T13:59:48;102227.97;;;5.58;100.00
64192;BME280;50497;50.720;-2.084;2022-12-07T14:02:35;102215.63;;;5.61;100.00
64192;BME280;50497;50.720;-2.084;2022-12-07T14:05:25;102205.88;;;5.60;100.00
64192;BME280;50497;50.720;-2.084;2022-12-07T14:08:03;102176.66;;;5.60;100.00
64192;BME280;50497;50.720;-2.084;2022-12-07T14:13:30;102194.31;;;5.67;100.00
64192;BME280;50497;50.720;-2.084;2022-12-07T14:16:03;102191.66;;;5.67;100.00
64192;BME280;50497;50.720;-2.084;2022-12-07T14:18:39;102185.50;;;5.62;100.00
64192;BME280;50497;50.720;-2.084;2022-12-07T14:21:23;102161.66;;;5.45;100.00
64192;BME280;50497;50.720;-2.084;2022-12-07T14:26:37;102181.94;;;5.69;100.00
64192;BME280;50497;50.720;-2.084;2022-12-07T14:31:52;102179.31;;;5.62;100.00
64192;BME280;50497;50.720;-2.084;2022-12-07T14:34:23;102168.72;;;5.54;100.00
64192;BME280;50497;50.720;-2.084;2022-12-07T14:36:49;102163.47;;;5.40;100.00
64192;BME280;50497;50.720;-2.084;2022-12-07T14:39:14;102172.22;;;5.56;100.00
64192;BME280;50497;50.720;-2.084;2022-12-07T14:41:42;102176.72;;;5.45;100.00
64192;BME280;50497;50.720;-2.084;2022-12-07T14:44:21;102176.72;;;5.35;100.00
64192;BME280;50497;50.720;-2.084;2022-12-07T14:46:48;102150.19;;;5.32;100.00
64192;BME280;50497;50.720;-2.084;2022-12-07T14:49:14;102160.81;;;5.32;100.00
64192;BME280;50497;50.720;-2.084;2022-12-07T14:51:42;102159.94;;;5.36;100.00
64192;BME280;50497;50.720;-2.084;2022-12-07T14:54:16;102168.75;;;5.39;100.00
64192;BME280;50497;50.720;-2.084;2022-12-07T14:56:42;102146.69;;;5.30;100.00
64192;BME280;50497;50.720;-2.084;2022-12-07T14:59:09;102160.81;;;5.42;100.00
64192;BME280;50497;50.720;-2.084;2022-12-07T15:01:35;102159.91;;;5.41;100.00
64192;BME280;50497;50.720;-2.084;2022-12-07T15:04:00;102161.72;;;5.33;100.00
64192;BME280;50497;50.720;-2.084;2022-12-07T15:06:26;102155.56;;;5.20;100.00
64192;BME280;50497;50.720;-2.084;2022-12-07T15:08:51;102146.72;;;5.16;100.00
64192;BME280;50497;50.720;-2.084;2022-12-07T15:11:17;102160.84;;;5.18;100.00
64192;BME280;50497;50.720;-2.084;2022-12-07T15:13:43;102168.81;;;5.08;100.00
64192;BME280;50497;50.720;-2.084;2022-12-07T15:16:27;102152.94;;;4.88;100.00
64192;BME280;50497;50.720;-2.084;2022-12-07T15:18:53;102170.63;;;4.82;100.00
64192;BME280;50497;50.720;-2.084;2022-12-07T15:21:18;102163.56;;;4.68;100.00
64192;BME280;50497;50.720;-2.084;2022-12-07T15:23:46;102152.97;;;4.49;100.00
64192;BME280;50497;50.720;-2.084;2022-12-07T15:26:11;102150.31;;;4.37;100.00
64192;BME280;50497;50.720;-2.084;2022-12-07T15:28:37;102150.31;;;4.38;100.00